Time;durP1;ratioP1;P1;durP2;ratioP2;P2;SDS_P1;SDS_P2;PMS_P1;PMS_P2;Temp;Humidity;BMP_temperature;BMP_pressure;BME280_temperature;BME280_humidity;BME280_pressure;Samples;Min_cycle;Max_cycle;Signal;HPM_P1;HPM_P2
2022/05/08 00:00:13;;;;;;;8.73;4.05;;;;;;;;;;4927906;29;20052;-68
2022/05/08 00:02:40;;;;;;;7.57;4.03;;;;;;;;;;4897285;29;20028;-67
2022/05/08 00:05:07;;;;;;;10.10;4.50;;;;;;;;;;4897541;29;20028;-68
2022/05/08 00:07:33;;;;;;;6.32;4.75;;;;;;;;;;4928053;29;20076;-68
2022/05/08 00:10:00;;;;;;;4.60;4.13;;;;;;;;;;4897742;29;20042;-68
2022/05/08 00:12:26;;;;;;;5.78;4.43;;;;;;;;;;4898140;29;20043;-67
2022/05/08 00:14:53;;;;;;;6.35;4.45;;;;;;;;;;4897343;29;20028;-67
2022/05/08 00:17:19;;;;;;;6.32;4.38;;;;;;;;;;4897065;29;20024;-68
2022/05/08 00:19:49;;;;;;;6.22;4.20;;;;;;;;;;4897586;29;20021;-68
2022/05/08 00:22:15;;;;;;;6.45;4.22;;;;;;;;;;4896990;29;20060;-68
2022/05/08 00:24:42;;;;;;;11.75;4.90;;;;;;;;;;4897721;29;20044;-68
2022/05/08 00:27:08;;;;;;;6.88;4.57;;;;;;;;;;4897157;29;20023;-67
2022/05/08 00:29:34;;;;;;;5.00;4.45;;;;;;;;;;4897019;29;20067;-68
2022/05/08 00:32:01;;;;;;;10.18;4.43;;;;;;;;;;4896673;29;20371;-68
2022/05/08 00:34:27;;;;;;;8.32;5.05;;;;;;;;;;4897008;29;20050;-67
2022/05/08 00:36:53;;;;;;;8.00;4.70;;;;;;;;;;4897548;29;20033;-68
2022/05/08 00:39:20;;;;;;;6.38;4.57;;;;;;;;;;4897344;29;20028;-68
2022/05/08 00:41:46;;;;;;;8.75;4.97;;;;;;;;;;4896807;29;20028;-68
2022/05/08 00:44:13;;;;;;;8.00;5.05;;;;;;;;;;4896761;29;20045;-68
2022/05/08 00:46:40;;;;;;;5.75;4.50;;;;;;;;;;4896082;29;20401;-68
2022/05/08 00:49:06;;;;;;;7.18;5.20;;;;;;;;;;4896948;29;20033;-68
2022/05/08 00:51:33;;;;;;;6.10;4.90;;;;;;;;;;4897425;29;20561;-68
2022/05/08 00:54:01;;;;;;;10.10;5.45;;;;;;;;;;4896700;29;20043;-68
2022/05/08 00:56:27;;;;;;;6.70;4.70;;;;;;;;;;4896671;29;20025;-67
2022/05/08 00:58:54;;;;;;;6.68;4.93;;;;;;;;;;4896675;29;20031;-68
2022/05/08 01:01:21;;;;;;;7.25;4.75;;;;;;;;;;4896508;29;20367;-67
2022/05/08 01:03:48;;;;;;;9.40;4.95;;;;;;;;;;4893612;29;20040;-68
2022/05/08 01:06:18;;;;;;;6.35;4.80;;;;;;;;;;4896563;29;20021;-68
2022/05/08 01:08:49;;;;;;;7.40;5.55;;;;;;;;;;4896545;29;20032;-68
2022/05/08 01:11:15;;;;;;;5.55;4.47;;;;;;;;;;4896548;29;20023;-68
2022/05/08 01:13:42;;;;;;;7.38;4.72;;;;;;;;;;4896695;29;20037;-67
2022/05/08 01:16:10;;;;;;;6.63;5.32;;;;;;;;;;4896517;29;20036;-68
2022/05/08 01:18:37;;;;;;;6.88;4.65;;;;;;;;;;4897585;29;20028;-68
2022/05/08 01:21:04;;;;;;;6.35;5.18;;;;;;;;;;4896381;29;20041;-67
2022/05/08 01:23:30;;;;;;;7.50;5.30;;;;;;;;;;4896333;29;20040;-68
2022/05/08 01:25:57;;;;;;;8.82;5.53;;;;;;;;;;4896509;29;20024;-68
2022/05/08 01:28:25;;;;;;;7.53;5.13;;;;;;;;;;4896455;29;20072;-67
2022/05/08 01:30:53;;;;;;;5.38;4.88;;;;;;;;;;4911241;29;20374;-68
2022/05/08 01:33:19;;;;;;;8.73;5.15;;;;;;;;;;4896754;29;20041;-68
2022/05/08 01:35:46;;;;;;;7.00;4.97;;;;;;;;;;4896474;29;20021;-68
2022/05/08 01:38:14;;;;;;;6.50;4.60;;;;;;;;;;4896305;29;20110;-68
2022/05/08 01:40:40;;;;;;;5.88;4.57;;;;;;;;;;4896757;29;20031;-67
2022/05/08 01:43:07;;;;;;;5.90;4.35;;;;;;;;;;4896394;29;20045;-67
2022/05/08 01:45:34;;;;;;;8.60;4.85;;;;;;;;;;4926879;29;20039;-68
2022/05/08 01:50:45;;;;;;;6.70;4.60;;;;;;;;;;4896481;29;20037;-68
2022/05/08 01:53:12;;;;;;;5.65;4.63;;;;;;;;;;4896364;29;20025;-67
2022/05/08 01:55:38;;;;;;;7.97;4.15;;;;;;;;;;4896713;29;20039;-67
2022/05/08 01:58:04;;;;;;;10.80;4.88;;;;;;;;;;4896192;29;20083;-68
2022/05/08 02:00:32;;;;;;;5.30;4.65;;;;;;;;;;4900076;29;20043;-68
2022/05/08 02:02:59;;;;;;;7.88;4.90;;;;;;;;;;4899499;29;20031;-67
2022/05/08 02:05:28;;;;;;;5.90;4.63;;;;;;;;;;4899614;29;20028;-68
2022/05/08 02:07:54;;;;;;;6.80;4.97;;;;;;;;;;4899773;29;20017;-68
2022/05/08 02:10:21;;;;;;;8.38;4.57;;;;;;;;;;4899705;29;20056;-67
2022/05/08 02:12:47;;;;;;;6.80;4.80;;;;;;;;;;4895904;29;20017;-68
2022/05/08 02:15:17;;;;;;;7.00;4.78;;;;;;;;;;4899537;29;20092;-68
2022/05/08 02:17:44;;;;;;;5.82;4.70;;;;;;;;;;4899432;29;20035;-68
2022/05/08 02:20:11;;;;;;;8.82;4.90;;;;;;;;;;4899656;29;20021;-68
2022/05/08 02:22:37;;;;;;;7.78;5.10;;;;;;;;;;4899263;29;20035;-68
2022/05/08 02:25:05;;;;;;;6.53;4.47;;;;;;;;;;4899462;29;20500;-69
2022/05/08 02:27:35;;;;;;;6.05;5.03;;;;;;;;;;4899725;29;20031;-69
2022/05/08 02:30:01;;;;;;;6.45;5.28;;;;;;;;;;4899150;29;20043;-68
2022/05/08 02:32:27;;;;;;;7.55;5.20;;;;;;;;;;4899253;29;20040;-69
2022/05/08 02:34:54;;;;;;;6.20;4.78;;;;;;;;;;4899043;29;20025;-69
2022/05/08 02:37:20;;;;;;;6.32;4.55;;;;;;;;;;4899745;29;20067;-68
2022/05/08 02:39:46;;;;;;;6.93;4.82;;;;;;;;;;4895593;29;20043;-69
2022/05/08 02:42:12;;;;;;;9.55;5.20;;;;;;;;;;4898529;29;20033;-69
2022/05/08 02:44:39;;;;;;;5.32;4.68;;;;;;;;;;4899049;29;20079;-69
2022/05/08 02:47:05;;;;;;;12.35;5.18;;;;;;;;;;4898892;29;20017;-69
2022/05/08 02:49:31;;;;;;;7.75;5.15;;;;;;;;;;4899023;29;20450;-69
2022/05/08 02:51:58;;;;;;;7.63;5.18;;;;;;;;;;4899297;29;20028;-70
2022/05/08 02:54:24;;;;;;;7.15;5.10;;;;;;;;;;4899257;29;20032;-69
2022/05/08 02:59:35;;;;;;;7.18;4.55;;;;;;;;;;4898818;29;20032;-69
2022/05/08 03:02:02;;;;;;;7.78;5.22;;;;;;;;;;4898697;29;20029;-69
2022/05/08 03:04:28;;;;;;;6.15;4.78;;;;;;;;;;4898622;29;20419;-68
2022/05/08 03:06:55;;;;;;;5.88;5.10;;;;;;;;;;4898785;29;20042;-69
2022/05/08 03:09:21;;;;;;;5.55;4.78;;;;;;;;;;4898442;29;20037;-68
2022/05/08 03:11:47;;;;;;;6.88;5.22;;;;;;;;;;4898294;29;20029;-68
2022/05/08 03:14:14;;;;;;;7.53;4.95;;;;;;;;;;4898385;29;20118;-69
2022/05/08 03:16:41;;;;;;;9.77;5.40;;;;;;;;;;4929151;29;20031;-69
2022/05/08 03:19:07;;;;;;;7.72;5.10;;;;;;;;;;4898526;29;20038;-68
2022/05/08 03:21:34;;;;;;;9.25;5.20;;;;;;;;;;4929194;29;20044;-69
2022/05/08 03:24:00;;;;;;;7.38;5.35;;;;;;;;;;4898032;29;20037;-68
2022/05/08 03:26:30;;;;;;;6.57;4.85;;;;;;;;;;4897848;29;20540;-69
2022/05/08 03:28:56;;;;;;;8.30;5.65;;;;;;;;;;4898386;29;20029;-68
2022/05/08 03:31:22;;;;;;;6.30;5.10;;;;;;;;;;4912979;29;20027;-68
2022/05/08 03:33:49;;;;;;;7.22;4.97;;;;;;;;;;4899006;29;20037;-69
2022/05/08 03:36:16;;;;;;;8.88;4.90;;;;;;;;;;4898304;29;20027;-69
2022/05/08 03:38:43;;;;;;;8.60;5.03;;;;;;;;;;4898046;29;20024;-69
2022/05/08 03:41:09;;;;;;;5.45;4.65;;;;;;;;;;4897514;29;20042;-68
2022/05/08 03:43:36;;;;;;;8.05;5.20;;;;;;;;;;4897943;29;20044;-68
2022/05/08 03:46:02;;;;;;;10.38;5.63;;;;;;;;;;4898083;29;20075;-69
2022/05/08 03:48:28;;;;;;;8.10;5.10;;;;;;;;;;4898172;29;20039;-69
2022/05/08 03:50:55;;;;;;;5.88;5.28;;;;;;;;;;4897726;29;20021;-69
2022/05/08 03:53:21;;;;;;;7.70;5.22;;;;;;;;;;4898031;29;20020;-69
2022/05/08 03:55:47;;;;;;;9.38;5.15;;;;;;;;;;4897390;29;20512;-69
2022/05/08 03:58:14;;;;;;;9.98;5.43;;;;;;;;;;4898066;29;20036;-69
2022/05/08 04:00:40;;;;;;;8.65;5.68;;;;;;;;;;4928712;29;20039;-69
2022/05/08 04:03:06;;;;;;;5.78;5.00;;;;;;;;;;4897348;29;20016;-68
2022/05/08 04:05:33;;;;;;;6.68;4.97;;;;;;;;;;4897514;29;20409;-68
2022/05/08 04:07:59;;;;;;;9.75;5.15;;;;;;;;;;4927843;29;20032;-69
2022/05/08 04:10:25;;;;;;;11.65;5.40;;;;;;;;;;4897147;29;20043;-69
2022/05/08 04:12:52;;;;;;;10.35;4.93;;;;;;;;;;4896724;29;20032;-68
2022/05/08 04:18:03;;;;;;;8.52;5.55;;;;;;;;;;4896090;29;20051;-68
2022/05/08 04:20:29;;;;;;;12.20;5.50;;;;;;;;;;4897050;29;20074;-68
2022/05/08 04:25:40;;;;;;;8.63;5.30;;;;;;;;;;4897200;29;20032;-68
2022/05/08 04:28:07;;;;;;;8.35;5.43;;;;;;;;;;4897249;29;20385;-68
2022/05/08 04:30:34;;;;;;;9.20;5.28;;;;;;;;;;4897902;29;20033;-68
2022/05/08 04:33:01;;;;;;;6.97;5.20;;;;;;;;;;4896982;29;20054;-68
2022/05/08 04:35:27;;;;;;;5.78;4.95;;;;;;;;;;4896925;29;20033;-68
2022/05/08 04:37:54;;;;;;;7.45;4.78;;;;;;;;;;4896648;29;20390;-69
2022/05/08 04:40:20;;;;;;;12.65;5.07;;;;;;;;;;4897191;29;20025;-68
2022/05/08 04:42:46;;;;;;;9.48;4.90;;;;;;;;;;4897852;29;20066;-68
2022/05/08 04:45:13;;;;;;;9.75;5.32;;;;;;;;;;4896784;29;20047;-69
2022/05/08 04:47:39;;;;;;;9.23;5.28;;;;;;;;;;4896762;29;20024;-69
2022/05/08 04:50:05;;;;;;;5.97;5.38;;;;;;;;;;4897062;29;20033;-69
2022/05/08 04:52:32;;;;;;;6.60;5.45;;;;;;;;;;4896783;29;20034;-68
2022/05/08 04:54:59;;;;;;;7.30;5.47;;;;;;;;;;4896963;29;20021;-69
2022/05/08 04:57:25;;;;;;;9.32;5.15;;;;;;;;;;4897523;29;20048;-69
2022/05/08 04:59:52;;;;;;;8.55;5.45;;;;;;;;;;4896681;29;20409;-69
2022/05/08 05:02:18;;;;;;;9.15;5.78;;;;;;;;;;4896612;29;20047;-68
2022/05/08 05:04:45;;;;;;;9.40;5.47;;;;;;;;;;4896701;29;20032;-68
2022/05/08 05:07:11;;;;;;;8.60;5.05;;;;;;;;;;4896344;29;20107;-69
2022/05/08 05:09:37;;;;;;;6.03;4.78;;;;;;;;;;4897215;29;20080;-68
2022/05/08 05:12:04;;;;;;;6.70;5.43;;;;;;;;;;4896576;29;20390;-68
2022/05/08 05:14:33;;;;;;;5.78;4.93;;;;;;;;;;4896627;29;20039;-68
2022/05/08 05:17:00;;;;;;;8.55;5.07;;;;;;;;;;4896398;29;20017;-67
2022/05/08 05:19:27;;;;;;;9.00;5.03;;;;;;;;;;4896662;29;20033;-68
2022/05/08 05:21:53;;;;;;;6.63;4.80;;;;;;;;;;4911103;29;20049;-68
2022/05/08 05:24:19;;;;;;;5.97;4.75;;;;;;;;;;4896904;29;20044;-68
2022/05/08 05:26:46;;;;;;;5.78;4.55;;;;;;;;;;4896781;29;20039;-68
2022/05/08 05:29:14;;;;;;;6.15;5.03;;;;;;;;;;4896445;29;20020;-68
2022/05/08 05:31:41;;;;;;;5.90;4.75;;;;;;;;;;4896685;29;20034;-68
2022/05/08 05:34:07;;;;;;;9.18;4.57;;;;;;;;;;4899502;29;20088;-68
2022/05/08 05:36:34;;;;;;;6.10;4.60;;;;;;;;;;4900563;29;20037;-68
2022/05/08 05:39:00;;;;;;;5.07;4.55;;;;;;;;;;4900201;29;20027;-68
2022/05/08 05:41:26;;;;;;;5.55;4.20;;;;;;;;;;4900184;29;20037;-69
2022/05/08 05:43:53;;;;;;;7.05;4.57;;;;;;;;;;4900183;29;20100;-68
2022/05/08 05:49:04;;;;;;;8.15;5.03;;;;;;;;;;4898354;29;20402;-68
2022/05/08 05:51:31;;;;;;;9.02;4.78;;;;;;;;;;4898412;29;20037;-69
2022/05/08 05:53:57;;;;;;;5.15;4.18;;;;;;;;;;4899988;29;20035;-69
2022/05/08 05:56:23;;;;;;;6.70;4.45;;;;;;;;;;4899805;29;20397;-68
2022/05/08 05:58:50;;;;;;;6.18;4.28;;;;;;;;;;4900007;29;20493;-69
2022/05/08 06:01:17;;;;;;;9.45;5.28;;;;;;;;;;4900093;29;20079;-68
2022/05/08 06:03:43;;;;;;;5.47;4.22;;;;;;;;;;4900452;29;20044;-68
2022/05/08 06:06:09;;;;;;;6.82;4.30;;;;;;;;;;4899351;29;20500;-68
2022/05/08 06:08:36;;;;;;;4.32;3.90;;;;;;;;;;4899845;29;20043;-69
2022/05/08 06:11:02;;;;;;;9.07;5.10;;;;;;;;;;4899598;29;20051;-68
2022/05/08 06:13:28;;;;;;;6.30;4.50;;;;;;;;;;4899708;29;20025;-68
2022/05/08 06:15:55;;;;;;;6.32;4.82;;;;;;;;;;4899907;29;20029;-68
2022/05/08 06:18:21;;;;;;;5.72;4.47;;;;;;;;;;4900194;29;20035;-68
2022/05/08 06:20:48;;;;;;;8.00;5.10;;;;;;;;;;4899074;29;20116;-69
2022/05/08 06:23:14;;;;;;;7.90;5.18;;;;;;;;;;4899254;29;20045;-69
2022/05/08 06:25:41;;;;;;;5.72;4.60;;;;;;;;;;4899496;29;20020;-70
2022/05/08 06:28:08;;;;;;;9.80;4.43;;;;;;;;;;4899684;29;20035;-68
2022/05/08 06:30:35;;;;;;;10.10;4.90;;;;;;;;;;4899748;29;20036;-68
2022/05/08 06:33:01;;;;;;;7.97;5.32;;;;;;;;;;4899224;29;20033;-68
2022/05/08 06:35:28;;;;;;;6.10;4.47;;;;;;;;;;4898685;29;20033;-68
2022/05/08 06:37:54;;;;;;;4.93;3.60;;;;;;;;;;4899371;29;20039;-68
2022/05/08 06:40:21;;;;;;;7.55;3.85;;;;;;;;;;4899211;29;20024;-69
2022/05/08 06:42:47;;;;;;;6.10;4.00;;;;;;;;;;4895956;29;20025;-69
2022/05/08 06:45:14;;;;;;;5.97;4.45;;;;;;;;;;4898302;29;20044;-68
2022/05/08 06:47:41;;;;;;;4.03;3.60;;;;;;;;;;4898741;29;20017;-69
2022/05/08 06:50:08;;;;;;;5.10;3.55;;;;;;;;;;4898850;29;20402;-69
2022/05/08 06:52:34;;;;;;;4.47;3.40;;;;;;;;;;4898837;29;20446;-68
2022/05/08 06:55:01;;;;;;;6.28;4.00;;;;;;;;;;4898925;29;20401;-68
2022/05/08 06:57:27;;;;;;;12.57;3.30;;;;;;;;;;4899588;29;20033;-69
2022/05/08 07:02:42;;;;;;;5.57;3.70;;;;;;;;;;4898426;29;20029;-69
2022/05/08 07:05:08;;;;;;;3.63;3.10;;;;;;;;;;4898706;29;20516;-69
2022/05/08 07:07:35;;;;;;;5.57;3.63;;;;;;;;;;4898773;29;20043;-68
2022/05/08 07:10:01;;;;;;;7.53;3.55;;;;;;;;;;4898902;29;20356;-68
2022/05/08 07:12:27;;;;;;;4.70;3.70;;;;;;;;;;4898861;29;20497;-68
2022/05/08 07:14:59;;;;;;;5.03;3.50;;;;;;;;;;4898339;29;20027;-68
2022/05/08 07:17:25;;;;;;;10.57;3.60;;;;;;;;;;4898066;29;20025;-68
2022/05/08 07:19:51;;;;;;;4.13;3.70;;;;;;;;;;4898815;29;20042;-69
2022/05/08 07:22:18;;;;;;;6.20;3.38;;;;;;;;;;4898158;29;20056;-68
2022/05/08 07:24:44;;;;;;;5.93;3.47;;;;;;;;;;4898895;29;20655;-68
2022/05/08 07:27:11;;;;;;;6.03;3.50;;;;;;;;;;4898281;29;20038;-68
2022/05/08 07:29:38;;;;;;;5.90;3.28;;;;;;;;;;4898196;29;20033;-68
2022/05/08 07:32:04;;;;;;;3.95;3.20;;;;;;;;;;4897800;29;20035;-68
2022/05/08 07:37:15;;;;;;;6.38;3.35;;;;;;;;;;4898245;29;20039;-69
2022/05/08 07:39:42;;;;;;;9.27;3.58;;;;;;;;;;4898940;29;20028;-68
2022/05/08 07:42:08;;;;;;;6.72;3.08;;;;;;;;;;4898401;29;20021;-68
2022/05/08 07:44:35;;;;;;;3.90;3.17;;;;;;;;;;4898084;29;20032;-68
2022/05/08 07:47:01;;;;;;;3.40;2.90;;;;;;;;;;4897798;29;20027;-68
2022/05/08 07:49:28;;;;;;;4.13;3.38;;;;;;;;;;4897917;29;20035;-68
2022/05/08 07:51:54;;;;;;;5.63;3.10;;;;;;;;;;4898263;29;20037;-68
2022/05/08 07:54:20;;;;;;;7.95;3.45;;;;;;;;;;4898108;29;20042;-68
2022/05/08 07:56:47;;;;;;;5.63;3.15;;;;;;;;;;4897658;29;20033;-68
2022/05/08 07:59:13;;;;;;;7.15;3.20;;;;;;;;;;4897960;29;20079;-68
2022/05/08 08:01:39;;;;;;;4.80;3.35;;;;;;;;;;4897285;29;20036;-68
2022/05/08 08:04:06;;;;;;;6.22;3.08;;;;;;;;;;4897855;29;20109;-68
2022/05/08 08:06:32;;;;;;;6.05;3.15;;;;;;;;;;4898363;29;20031;-68
2022/05/08 08:08:59;;;;;;;3.47;2.78;;;;;;;;;;4897510;29;20079;-68
2022/05/08 08:11:25;;;;;;;3.20;2.90;;;;;;;;;;4897471;29;20430;-68
2022/05/08 08:13:51;;;;;;;5.43;3.20;;;;;;;;;;4897705;29;20035;-68
2022/05/08 08:16:18;;;;;;;3.65;2.78;;;;;;;;;;4897240;29;20125;-68
2022/05/08 08:18:45;;;;;;;4.18;3.00;;;;;;;;;;4898313;29;20032;-68
2022/05/08 08:21:12;;;;;;;5.28;3.17;;;;;;;;;;4897153;29;20056;-68
2022/05/08 08:23:40;;;;;;;3.53;2.90;;;;;;;;;;4897102;29;20039;-68
2022/05/08 08:26:06;;;;;;;6.15;3.10;;;;;;;;;;4897131;29;20047;-66
2022/05/08 08:28:32;;;;;;;3.97;2.95;;;;;;;;;;4897524;29;20080;-66
2022/05/08 08:30:59;;;;;;;3.88;2.88;;;;;;;;;;4896893;29;20033;-66
2022/05/08 08:33:26;;;;;;;3.08;2.60;;;;;;;;;;4897478;29;20087;-66
2022/05/08 08:35:53;;;;;;;5.05;2.80;;;;;;;;;;4897132;29;20036;-66
2022/05/08 08:38:19;;;;;;;5.10;2.80;;;;;;;;;;4896933;29;20434;-67
2022/05/08 08:40:48;;;;;;;3.92;2.50;;;;;;;;;;4897118;29;20020;-66
2022/05/08 08:43:18;;;;;;;3.30;2.40;;;;;;;;;;4897203;29;20028;-66
2022/05/08 08:48:31;;;;;;;4.80;2.80;;;;;;;;;;4897177;29;20029;-66
2022/05/08 08:50:58;;;;;;;7.05;2.58;;;;;;;;;;4896967;29;20031;-66
2022/05/08 08:53:25;;;;;;;3.63;2.50;;;;;;;;;;4896958;29;20072;-66
2022/05/08 08:55:52;;;;;;;2.65;2.45;;;;;;;;;;4897019;29;20072;-66
2022/05/08 08:58:19;;;;;;;3.00;2.58;;;;;;;;;;4896767;29;20072;-66
2022/05/08 09:00:47;;;;;;;3.60;2.30;;;;;;;;;;4897307;29;20034;-66
2022/05/08 09:03:29;;;;;;;3.25;2.20;;;;;;;;;;4896717;29;20382;-67
2022/05/08 09:05:56;;;;;;;5.22;2.45;;;;;;;;;;4896683;29;20041;-67
2022/05/08 09:08:29;;;;;;;5.07;2.53;;;;;;;;;;4900665;29;20035;-67
2022/05/08 09:10:58;;;;;;;3.72;2.55;;;;;;;;;;4903050;29;20043;-66
2022/05/08 09:13:27;;;;;;;5.70;2.30;;;;;;;;;;4902730;29;20385;-66
2022/05/08 09:16:03;;;;;;;2.67;2.22;;;;;;;;;;4903336;29;20040;-66
2022/05/08 09:18:29;;;;;;;4.55;2.42;;;;;;;;;;4903117;29;20043;-67
2022/05/08 09:21:54;;;;;;;5.60;2.30;;;;;;;;;;4902670;29;20532;-67
2022/05/08 09:23:45;;;;;;;4.70;2.30;;;;;;;;;;4933126;29;20041;-66
2022/05/08 09:26:13;;;;;;;3.05;2.00;;;;;;;;;;4902867;29;20020;-67
2022/05/08 09:28:41;;;;;;;3.75;2.00;;;;;;;;;;4902716;29;20371;-66
2022/05/08 09:31:08;;;;;;;5.30;2.20;;;;;;;;;;4917324;29;20032;-67
2022/05/08 09:33:42;;;;;;;4.18;2.05;;;;;;;;;;4903467;29;20030;-67
2022/05/08 09:36:19;;;;;;;2.33;1.63;;;;;;;;;;4933128;29;20028;-66
2022/05/08 09:38:51;;;;;;;3.38;1.80;;;;;;;;;;4902653;29;20032;-66
2022/05/08 09:41:26;;;;;;;3.50;2.20;;;;;;;;;;4933041;29;20141;-66
2022/05/08 09:43:56;;;;;;;3.38;2.03;;;;;;;;;;4902398;29;20036;-68
2022/05/08 09:46:23;;;;;;;;;;;;;;;;;;4888861;29;20017;-68
2022/05/08 09:48:50;;;;;;;2.30;2.10;;;;;;;;;;4903283;29;19912;-68
2022/05/08 09:51:17;;;;;;;2.75;2.22;;;;;;;;;;4902721;29;20039;-68
2022/05/08 09:53:44;;;;;;;3.80;2.33;;;;;;;;;;4902535;29;20025;-68
2022/05/08 09:56:11;;;;;;;5.68;2.45;;;;;;;;;;4902260;29;20368;-68
2022/05/08 09:58:40;;;;;;;2.20;1.80;;;;;;;;;;4902733;29;20401;-68
2022/05/08 10:01:07;;;;;;;2.92;2.08;;;;;;;;;;4903013;29;20032;-68
2022/05/08 10:03:33;;;;;;;4.35;2.50;;;;;;;;;;4903122;29;20445;-68
2022/05/08 10:06:00;;;;;;;4.00;2.50;;;;;;;;;;4902760;29;20029;-69
2022/05/08 10:08:45;;;;;;;2.65;2.13;;;;;;;;;;4902443;29;20020;-66
2022/05/08 10:14:08;;;;;;;4.40;2.28;;;;;;;;;;4902416;29;20023;-66
2022/05/08 10:16:47;;;;;;;2.67;1.83;;;;;;;;;;4902549;29;20025;-67
2022/05/08 10:19:14;;;;;;;;;;;;;;;;;;4900771;29;20033;-66
2022/05/08 10:22:02;;;;;;;3.58;1.80;;;;;;;;;;4900037;29;19919;-66
2022/05/08 10:24:30;;;;;;;4.33;2.10;;;;;;;;;;4899775;29;20111;-67
2022/05/08 10:27:11;;;;;;;3.72;2.05;;;;;;;;;;4898179;29;20062;-66
2022/05/08 10:29:42;;;;;;;5.28;1.80;;;;;;;;;;4899469;29;20029;-66
2022/05/08 10:32:13;;;;;;;2.83;1.90;;;;;;;;;;4899293;29;20021;-66
2022/05/08 10:34:40;;;;;;;2.58;1.92;;;;;;;;;;4899294;29;20042;-67
2022/05/08 10:37:12;;;;;;;7.03;5.30;;;;;;;;;;4899176;29;20482;-66
2022/05/08 10:39:42;;;;;;;5.05;4.35;;;;;;;;;;4899757;29;20025;-67
2022/05/08 10:42:33;;;;;;;7.53;4.70;;;;;;;;;;4899080;29;20025;-66
2022/05/08 10:45:00;;;;;;;8.77;6.30;;;;;;;;;;4898491;29;20049;-68
2022/05/08 10:47:47;;;;;;;4.40;2.30;;;;;;;;;;4899091;29;20050;-68
2022/05/08 10:50:14;;;;;;;4.00;1.95;;;;;;;;;;4898846;29;20041;-68
2022/05/08 10:52:41;;;;;;;3.85;1.80;;;;;;;;;;4899383;29;20486;-68
2022/05/08 10:55:08;;;;;;;3.05;2.33;;;;;;;;;;4899229;29;20024;-68
2022/05/08 10:57:36;;;;;;;7.43;2.45;;;;;;;;;;4899868;29;20040;-68
2022/05/08 11:00:06;;;;;;;3.17;2.08;;;;;;;;;;4898675;29;20512;-68
2022/05/08 11:02:32;;;;;;;;;;;;;;;;;;4899465;29;20041;-68
2022/05/08 11:04:58;;;;;;;4.53;1.92;;;;;;;;;;4898857;29;19925;-68
2022/05/08 11:07:25;;;;;;;4.70;1.80;;;;;;;;;;4898627;29;20505;-68
2022/05/08 11:09:51;;;;;;;4.45;2.15;;;;;;;;;;4898827;29;20024;-68
2022/05/08 11:12:17;;;;;;;2.05;1.85;;;;;;;;;;4898618;29;20044;-68
2022/05/08 11:14:44;;;;;;;3.88;2.45;;;;;;;;;;4899123;29;20032;-68
2022/05/08 11:17:15;;;;;;;4.32;2.00;;;;;;;;;;4898696;29;20031;-68
2022/05/08 11:19:53;;;;;;;3.15;2.15;;;;;;;;;;4898547;29;20417;-68
2022/05/08 11:22:20;;;;;;;3.75;1.67;;;;;;;;;;4898445;29;20041;-68
2022/05/08 11:24:47;;;;;;;4.47;2.50;;;;;;;;;;4898648;29;20041;-68
2022/05/08 11:27:13;;;;;;;6.32;2.22;;;;;;;;;;4898611;29;20033;-68
2022/05/08 11:29:47;;;;;;;3.45;1.67;;;;;;;;;;4898189;29;20409;-68
2022/05/08 11:38:02;;;;;;;4.43;2.00;;;;;;;;;;4897898;29;20475;-68
2022/05/08 11:40:29;;;;;;;6.10;2.20;;;;;;;;;;4898151;29;20413;-68
2022/05/08 11:42:55;;;;;;;3.88;2.30;;;;;;;;;;4898289;29;20028;-68
2022/05/08 11:45:22;;;;;;;2.17;1.92;;;;;;;;;;4898422;29;20054;-68
2022/05/08 11:47:53;;;;;;;3.13;2.25;;;;;;;;;;4897686;29;20024;-68
2022/05/08 11:50:20;;;;;;;5.07;1.80;;;;;;;;;;4897832;29;20482;-68
2022/05/08 11:52:47;;;;;;;4.10;1.67;;;;;;;;;;4897564;29;20021;-68
2022/05/08 11:55:13;;;;;;;2.13;1.80;;;;;;;;;;4897836;29;20032;-68
2022/05/08 11:57:45;;;;;;;3.92;1.98;;;;;;;;;;4898772;29;20031;-68
2022/05/08 12:00:15;;;;;;;4.13;1.85;;;;;;;;;;4898118;29;20036;-68
2022/05/08 12:02:42;;;;;;;4.38;1.90;;;;;;;;;;4898091;29;20029;-68
2022/05/08 12:05:17;;;;;;;3.17;1.92;;;;;;;;;;4897608;29;20100;-68
2022/05/08 12:07:45;;;;;;;2.47;2.10;;;;;;;;;;4897363;29;20403;-68
2022/05/08 12:10:12;;;;;;;2.75;1.90;;;;;;;;;;4897919;29;20050;-68
2022/05/08 12:12:39;;;;;;;2.80;1.92;;;;;;;;;;4898154;29;20020;-68
2022/05/08 12:15:10;;;;;;;2.63;1.80;;;;;;;;;;4897641;29;20028;-68
2022/05/08 12:17:42;;;;;;;3.83;1.90;;;;;;;;;;4897558;29;20035;-68
2022/05/08 12:20:09;;;;;;;4.47;2.22;;;;;;;;;;4897115;29;20027;-68
2022/05/08 12:22:36;;;;;;;3.08;2.05;;;;;;;;;;4897091;29;20043;-68
2022/05/08 12:25:03;;;;;;;5.97;2.10;;;;;;;;;;4897210;29;20040;-68
2022/05/08 12:27:30;;;;;;;3.25;2.42;;;;;;;;;;4897809;29;20043;-68
2022/05/08 12:29:57;;;;;;;3.92;2.33;;;;;;;;;;4897107;29;20060;-68
2022/05/08 12:32:27;;;;;;;3.85;2.03;;;;;;;;;;4897097;29;20034;-68
2022/05/08 12:34:57;;;;;;;2.28;1.75;;;;;;;;;;4897145;29;20036;-68
2022/05/08 12:37:23;;;;;;;3.33;2.10;;;;;;;;;;4882203;29;20033;-68
2022/05/08 12:39:50;;;;;;;3.05;1.90;;;;;;;;;;4897894;29;20036;-68
2022/05/08 12:42:16;;;;;;;7.15;2.38;;;;;;;;;;4896331;29;20490;-68
2022/05/08 12:44:46;;;;;;;2.85;1.80;;;;;;;;;;4927207;29;20047;-68
2022/05/08 12:47:13;;;;;;;2.45;1.73;;;;;;;;;;4896802;29;20025;-68
2022/05/08 12:49:40;;;;;;;5.50;2.03;;;;;;;;;;4897030;29;20042;-68
2022/05/08 12:52:08;;;;;;;5.88;2.13;;;;;;;;;;4896639;29;20020;-68
2022/05/08 12:54:34;;;;;;;3.70;1.88;;;;;;;;;;4897339;29;20403;-68
2022/05/08 12:57:01;;;;;;;6.15;1.70;;;;;;;;;;4896748;29;20478;-68
2022/05/08 12:59:43;;;;;;;3.90;1.75;;;;;;;;;;4896799;29;20027;-68
2022/05/08 13:02:13;;;;;;;3.80;1.63;;;;;;;;;;4896582;29;20088;-68
2022/05/08 13:04:40;;;;;;;2.53;1.65;;;;;;;;;;4896687;29;20037;-68
2022/05/08 13:07:06;;;;;;;6.40;2.03;;;;;;;;;;4896876;29;20028;-68
2022/05/08 13:09:33;;;;;;;3.60;2.25;;;;;;;;;;4895329;29;20346;-68
2022/05/08 13:12:00;;;;;;;4.68;2.42;;;;;;;;;;4896575;29;20409;-68
2022/05/08 13:14:29;;;;;;;6.72;1.80;;;;;;;;;;4896991;29;20025;-68
2022/05/08 13:16:56;;;;;;;5.22;1.90;;;;;;;;;;4896793;29;20029;-68
2022/05/08 13:19:22;;;;;;;5.25;1.70;;;;;;;;;;4896363;29;20021;-68
2022/05/08 13:21:50;;;;;;;3.90;1.80;;;;;;;;;;4897281;29;20053;-68
2022/05/08 13:24:16;;;;;;;2.40;1.73;;;;;;;;;;4896752;29;20037;-68
2022/05/08 13:26:43;;;;;;;3.38;1.98;;;;;;;;;;4896487;29;20032;-68
2022/05/08 13:29:09;;;;;;;3.05;2.00;;;;;;;;;;4896459;29;20032;-68
2022/05/08 13:31:41;;;;;;;3.45;1.75;;;;;;;;;;4896800;29;20080;-68
2022/05/08 13:34:09;;;;;;;1.75;1.58;;;;;;;;;;4896280;29;20024;-68
2022/05/08 13:36:36;;;;;;;4.68;1.83;;;;;;;;;;4896971;29;20052;-68
2022/05/08 13:39:02;;;;;;;2.60;1.88;;;;;;;;;;4926685;29;20028;-68
2022/05/08 13:41:28;;;;;;;5.95;1.90;;;;;;;;;;4896269;29;20029;-68
2022/05/08 13:43:55;;;;;;;4.18;1.98;;;;;;;;;;4896901;29;20037;-68
2022/05/08 13:46:21;;;;;;;3.28;1.88;;;;;;;;;;4896652;29;20036;-68
2022/05/08 13:48:47;;;;;;;4.07;1.77;;;;;;;;;;4896779;29;20099;-68
2022/05/08 13:51:14;;;;;;;3.30;2.00;;;;;;;;;;4896658;29;20029;-68
2022/05/08 13:53:41;;;;;;;5.10;2.22;;;;;;;;;;4896986;29;20492;-68
2022/05/08 13:56:08;;;;;;;4.15;2.47;;;;;;;;;;4900182;29;20039;-68
2022/05/08 13:58:36;;;;;;;5.88;3.45;;;;;;;;;;4900066;29;20027;-68
2022/05/08 14:01:02;;;;;;;5.90;3.17;;;;;;;;;;4900586;29;20031;-68
2022/05/08 14:03:28;;;;;;;8.80;4.00;;;;;;;;;;4899979;29;20382;-68
2022/05/08 14:05:55;;;;;;;6.40;3.03;;;;;;;;;;4899840;29;20401;-68
2022/05/08 14:08:22;;;;;;;3.90;2.65;;;;;;;;;;4899579;29;20021;-68
2022/05/08 14:10:49;;;;;;;4.05;2.35;;;;;;;;;;4899666;29;20020;-68
2022/05/08 14:13:15;;;;;;;4.05;2.47;;;;;;;;;;4899784;29;20514;-68
2022/05/08 14:15:41;;;;;;;6.80;2.17;;;;;;;;;;4900292;29;20031;-68
2022/05/08 14:18:08;;;;;;;6.47;2.38;;;;;;;;;;4899668;29;20039;-68
2022/05/08 14:20:34;;;;;;;3.17;2.20;;;;;;;;;;4899346;29;20044;-68
2022/05/08 14:23:00;;;;;;;3.25;1.80;;;;;;;;;;4899330;29;20029;-68
2022/05/08 14:25:27;;;;;;;4.05;2.35;;;;;;;;;;4899513;29;20045;-68
2022/05/08 14:27:54;;;;;;;4.03;2.40;;;;;;;;;;4900172;29;20028;-68
2022/05/08 14:30:20;;;;;;;3.50;1.95;;;;;;;;;;4899049;29;20024;-67
2022/05/08 14:38:13;;;;;;;3.63;2.00;;;;;;;;;;4899103;29;20516;-68
2022/05/08 14:40:39;;;;;;;8.30;2.35;;;;;;;;;;4899339;29;20052;-68
2022/05/08 14:43:06;;;;;;;6.25;2.35;;;;;;;;;;4913678;29;20032;-68
2022/05/08 14:45:33;;;;;;;4.10;2.38;;;;;;;;;;4899684;29;20040;-68
2022/05/08 14:48:00;;;;;;;3.78;2.28;;;;;;;;;;4898907;29;20016;-68
2022/05/08 14:50:27;;;;;;;4.32;2.42;;;;;;;;;;4899164;29;20039;-68
2022/05/08 14:52:54;;;;;;;3.08;2.35;;;;;;;;;;4899154;29;20024;-68
2022/05/08 14:55:20;;;;;;;3.90;2.30;;;;;;;;;;4899140;29;20025;-68
2022/05/08 14:57:47;;;;;;;3.30;2.30;;;;;;;;;;4899497;29;20029;-68
2022/05/08 15:00:14;;;;;;;3.42;2.40;;;;;;;;;;4898752;29;20440;-68
2022/05/08 15:02:41;;;;;;;5.18;2.17;;;;;;;;;;4898294;29;20028;-68
2022/05/08 15:05:08;;;;;;;3.22;2.20;;;;;;;;;;4898210;29;20084;-68
2022/05/08 15:07:34;;;;;;;3.50;2.30;;;;;;;;;;4898653;29;20490;-68
2022/05/08 15:10:00;;;;;;;3.92;2.50;;;;;;;;;;4898909;29;20479;-68
2022/05/08 15:12:27;;;;;;;5.75;2.30;;;;;;;;;;4899272;29;20050;-68
2022/05/08 15:14:53;;;;;;;5.00;1.98;;;;;;;;;;4898571;29;20462;-68
2022/05/08 15:17:19;;;;;;;3.58;2.20;;;;;;;;;;4898203;29;20035;-68
2022/05/08 15:19:46;;;;;;;2.78;2.15;;;;;;;;;;4898860;29;20032;-68